Time;durP1;ratioP1;P1;durP2;ratioP2;P2;SDS_P1;SDS_P2;PMS_P1;PMS_P2;Temp;Humidity;BMP_temperature;BMP_pressure;BME280_temperature;BME280_humidity;BME280_pressure;Samples;Min_cycle;Max_cycle;Signal;HPM_P1;HPM_P2
2024/01/18 00:01:14;;;;;;;26.67;7.53;;;;;;;12.84;100.00;97260.78;5097519;28;20390;-95
2024/01/18 00:03:40;;;;;;;17.35;4.65;;;;;;;12.75;100.00;97255.97;5098343;28;20088;-95
2024/01/18 00:06:06;;;;;;;13.70;4.30;;;;;;;12.27;100.00;97183.31;5098240;28;20052;-92
2024/01/18 00:08:32;;;;;;;18.65;5.60;;;;;;;12.38;100.00;97215.50;5094741;28;20565;-94
2024/01/18 00:10:59;;;;;;;11.73;3.97;;;;;;;12.22;100.00;97182.72;5098297;28;20039;-94
2024/01/18 00:13:27;;;;;;;19.88;4.85;;;;;;;12.56;100.00;97237.56;5098205;28;20032;-94
2024/01/18 00:15:52;;;;;;;11.48;3.72;;;;;;;12.31;100.00;97203.50;5098318;28;20130;-95
2024/01/18 00:18:18;;;;;;;12.50;4.47;;;;;;;12.54;100.00;97224.31;5098978;28;20090;-94
2024/01/18 00:20:44;;;;;;;15.70;3.35;;;;;;;12.44;100.00;97212.47;5097913;28;20499;-94
2024/01/18 00:23:10;;;;;;;11.57;2.75;;;;;;;12.23;100.00;97181.78;5098361;28;20066;-93
2024/01/18 00:25:36;;;;;;;10.98;4.15;;;;;;;12.47;100.00;97214.09;5097846;28;20040;-94
2024/01/18 00:28:02;;;;;;;15.02;3.67;;;;;;;12.48;100.00;97213.16;5098130;28;20035;-95
2024/01/18 00:30:29;;;;;;;19.02;3.67;;;;;;;12.18;100.00;97163.38;5098141;28;20036;-95
2024/01/18 00:32:55;;;;;;;8.85;3.67;;;;;;;12.39;100.00;97189.72;5099253;28;20047;-94
2024/01/18 00:35:21;;;;;;;12.57;3.90;;;;;;;12.50;100.00;97181.94;5098591;28;20081;-96
2024/01/18 00:37:47;;;;;;;12.98;2.35;;;;;;;12.22;100.00;97143.59;5098413;28;20416;-95
2024/01/18 00:40:14;;;;;;;13.35;3.80;;;;;;;12.42;100.00;97166.41;5098626;28;20040;-94
2024/01/18 00:42:39;;;;;;;10.05;3.20;;;;;;;12.60;100.00;97196.44;5098233;28;20067;-93
2024/01/18 00:45:07;;;;;;;7.43;3.05;;;;;;;12.31;100.00;97143.03;5099234;28;20087;-96
2024/01/18 00:47:34;;;;;;;11.40;2.45;;;;;;;12.45;100.00;97141.38;5100026;28;20541;-95
2024/01/18 00:50:00;;;;;;;8.85;3.53;;;;;;;12.42;100.00;97133.56;5100210;28;20043;-94
2024/01/18 00:52:26;;;;;;;16.75;3.15;;;;;;;12.29;100.00;97106.78;5100997;28;20066;-95
2024/01/18 00:54:52;;;;;;;10.55;3.13;;;;;;;12.64;100.00;97154.44;5099026;28;20039;-94
2024/01/18 00:57:18;;;;;;;14.68;3.50;;;;;;;12.64;100.00;97155.31;5098839;28;20040;-94
2024/01/18 00:59:44;;;;;;;10.57;3.33;;;;;;;12.59;100.00;97151.19;5099783;28;20043;-93
2024/01/18 01:02:10;;;;;;;13.50;3.60;;;;;;;12.51;100.00;97133.00;5099058;28;20039;-94
2024/01/18 01:04:37;;;;;;;17.33;4.30;;;;;;;12.73;100.00;97185.91;5099110;28;20047;-93
2024/01/18 01:07:03;;;;;;;8.15;3.28;;;;;;;12.79;100.00;97188.16;5099754;28;20043;-95
2024/01/18 01:09:29;;;;;;;15.10;3.75;;;;;;;12.72;100.00;97163.66;5100853;28;20066;-93
2024/01/18 01:11:56;;;;;;;13.05;4.25;;;;;;;12.91;100.00;97181.22;5100216;28;20036;-94
2024/01/18 01:14:22;;;;;;;11.73;3.90;;;;;;;12.89;100.00;97175.13;5098340;28;20043;-94
2024/01/18 01:16:47;;;;;;;17.13;4.03;;;;;;;12.47;100.00;97112.78;5098277;28;20563;-93
2024/01/18 01:19:13;;;;;;;16.70;2.95;;;;;;;12.60;100.00;97136.91;5098341;28;20092;-93
2024/01/18 01:21:41;;;;;;;10.48;2.90;;;;;;;12.61;100.00;97122.63;5099840;28;20409;-93
2024/01/18 01:24:07;;;;;;;8.63;3.97;;;;;;;12.40;100.00;97095.47;5099410;28;20415;-93
2024/01/18 01:26:33;;;;;;;11.55;3.90;;;;;;;12.75;100.00;97149.28;5098571;28;20043;-94
2024/01/18 01:28:59;;;;;;;6.00;3.15;;;;;;;12.83;100.00;97168.34;5097184;28;20046;-93
2024/01/18 01:31:24;;;;;;;11.05;2.90;;;;;;;12.77;100.00;97147.38;5095878;28;20035;-95
2024/01/18 01:33:50;;;;;;;9.55;3.35;;;;;;;12.88;100.00;97173.41;5097172;28;20062;-94
2024/01/18 01:36:16;;;;;;;13.23;3.92;;;;;;;12.34;100.00;97086.06;5097342;28;20043;-94
2024/01/18 01:38:43;;;;;;;12.48;3.35;;;;;;;12.85;100.00;97160.25;5097680;28;20040;-93
2024/01/18 01:41:10;;;;;;;12.05;2.75;;;;;;;12.82;100.00;97158.66;5098268;28;20035;-95
2024/01/18 01:43:35;;;;;;;12.60;2.78;;;;;;;12.77;100.00;97142.03;5098190;28;20039;-94
2024/01/18 01:46:01;;;;;;;13.05;3.13;;;;;;;12.50;100.00;97100.16;5097225;28;20373;-94
2024/01/18 01:48:28;;;;;;;10.00;2.55;;;;;;;12.47;100.00;97102.13;5096980;28;20450;-94
2024/01/18 01:50:54;;;;;;;9.07;4.07;;;;;;;12.60;100.00;97116.44;5097792;28;20040;-94
2024/01/18 01:53:21;;;;;;;9.93;2.80;;;;;;;12.45;100.00;97104.06;5098102;28;20047;-94
2024/01/18 01:55:48;;;;;;;15.88;3.05;;;;;;;12.77;100.00;97160.72;5096506;28;20391;-94
2024/01/18 01:58:17;;;;;;;11.23;3.15;;;;;;;12.59;100.00;97154.72;5097212;28;20052;-94
2024/01/18 02:00:44;;;;;;;12.15;3.85;;;;;;;12.52;100.00;97135.56;5096749;28;20031;-95
2024/01/18 02:03:10;;;;;;;10.38;3.40;;;;;;;12.41;100.00;97124.72;5097716;28;20039;-93
2024/01/18 02:05:36;;;;;;;13.80;3.67;;;;;;;12.68;100.00;97156.81;5097608;28;20036;-94
2024/01/18 02:08:03;;;;;;;14.48;3.40;;;;;;;12.69;100.00;97147.88;5097034;28;20043;-92
2024/01/18 02:10:28;;;;;;;12.15;2.65;;;;;;;12.46;100.00;97125.28;5096507;28;20092;-93
2024/01/18 02:12:57;;;;;;;10.18;2.85;;;;;;;12.49;100.00;97127.78;5096541;28;20028;-93
2024/01/18 02:15:23;;;;;;;8.00;2.75;;;;;;;12.59;100.00;97140.53;5094486;28;20081;-93
2024/01/18 02:17:48;;;;;;;9.40;2.72;;;;;;;12.50;100.00;97144.63;5095775;28;20496;-91
2024/01/18 02:20:14;;;;;;;13.18;3.60;;;;;;;12.56;100.00;97140.72;5095101;28;20138;-93
2024/01/18 02:22:43;;;;;;;13.32;4.07;;;;;;;12.44;100.00;97121.84;5095175;28;20043;-92
2024/01/18 02:25:18;;;;;;;13.25;3.13;;;;;;;12.73;100.00;97159.22;5096140;28;20511;-93
2024/01/18 02:27:44;;;;;;;16.73;4.25;;;;;;;12.37;100.00;97104.50;5095184;28;20035;-94
2024/01/18 02:30:10;;;;;;;16.40;4.05;;;;;;;12.53;100.00;97137.31;5095506;28;20561;-95
2024/01/18 02:32:36;;;;;;;20.42;4.28;;;;;;;12.32;100.00;97098.63;5096303;28;20057;-95
2024/01/18 02:35:02;;;;;;;15.68;3.03;;;;;;;12.54;100.00;97140.81;5096111;28;20046;-94
2024/01/18 02:37:29;;;;;;;13.18;3.08;;;;;;;12.53;100.00;97141.75;5095393;28;20031;-94
2024/01/18 02:39:54;;;;;;;9.73;3.13;;;;;;;12.60;100.00;97144.91;5095261;28;20032;-93
2024/01/18 02:42:22;;;;;;;13.45;2.85;;;;;;;12.20;100.00;97088.69;5095435;28;20047;-95
2024/01/18 02:44:48;;;;;;;9.88;2.78;;;;;;;12.72;100.00;97160.16;5095223;28;20046;-94
2024/01/18 02:47:14;;;;;;;15.18;3.65;;;;;;;12.35;100.00;97111.75;5094418;28;20122;-95
2024/01/18 02:49:42;;;;;;;11.57;2.15;;;;;;;12.62;100.00;97141.22;5095220;28;20131;-94
2024/01/18 02:52:08;;;;;;;20.98;3.63;;;;;;;12.50;100.00;97094.81;5095589;28;20046;-95
2024/01/18 02:54:34;;;;;;;12.95;3.42;;;;;;;12.71;100.00;97134.44;5095497;28;20119;-95
2024/01/18 02:57:00;;;;;;;13.65;4.03;;;;;;;12.37;100.00;97071.69;5095305;28;20484;-94
2024/01/18 02:59:27;;;;;;;14.85;3.10;;;;;;;12.49;100.00;97087.78;5095403;28;20043;-93
2024/01/18 03:01:53;;;;;;;14.02;3.55;;;;;;;12.46;100.00;97093.28;5094402;28;20100;-92
2024/01/18 03:04:19;;;;;;;12.05;3.40;;;;;;;12.40;100.00;97079.47;5100022;28;20040;-94
2024/01/18 03:06:45;;;;;;;14.52;3.42;;;;;;;12.56;100.00;97103.41;5099761;28;20047;-93
2024/01/18 03:09:14;;;;;;;13.68;3.03;;;;;;;12.72;100.00;97117.47;5100495;28;20476;-94
2024/01/18 03:11:39;;;;;;;16.13;4.05;;;;;;;12.41;100.00;97074.06;5099205;28;20092;-95
2024/01/18 03:14:05;;;;;;;9.38;3.10;;;;;;;12.77;100.00;97133.19;5099704;28;20039;-94
2024/01/18 03:16:34;;;;;;;13.50;4.10;;;;;;;12.60;100.00;97094.22;5099250;28;20054;-94
2024/01/18 03:19:00;;;;;;;17.15;3.85;;;;;;;12.74;100.00;97110.25;5101151;28;20055;-94
2024/01/18 03:21:25;;;;;;;13.93;3.15;;;;;;;12.67;100.00;97107.09;5101251;28;20040;-95
2024/01/18 03:23:51;;;;;;;10.30;3.42;;;;;;;12.80;100.00;97117.03;5099554;28;20139;-93
2024/01/18 03:26:17;;;;;;;7.78;3.35;;;;;;;12.82;100.00;97120.44;5101038;28;20043;-95
2024/01/18 03:28:43;;;;;;;17.98;4.53;;;;;;;12.63;100.00;97088.72;5099513;28;20037;-96
2024/01/18 03:31:09;;;;;;;10.73;3.85;;;;;;;12.41;100.00;97052.72;5100180;28;20043;-93
2024/01/18 03:33:37;;;;;;;11.27;4.07;;;;;;;12.37;100.00;97053.88;5099197;28;20032;-96
2024/01/18 03:36:04;;;;;;;7.75;3.28;;;;;;;12.43;100.00;97074.81;5099057;28;20122;-94
2024/01/18 03:38:29;;;;;;;7.70;3.35;;;;;;;12.79;100.00;97117.97;5112558;28;20518;-94
2024/01/18 03:40:55;;;;;;;17.55;4.30;;;;;;;12.65;100.00;97095.69;5099472;28;20039;-94
2024/01/18 03:43:21;;;;;;;17.35;4.05;;;;;;;12.91;100.00;97128.72;5095501;28;20043;-93
2024/01/18 03:45:47;;;;;;;11.88;3.38;;;;;;;12.62;100.00;97063.00;5097379;28;20052;-93
2024/01/18 03:48:13;;;;;;;12.68;2.20;;;;;;;12.93;100.00;97128.63;5099331;28;20465;-95
2024/01/18 03:50:40;;;;;;;11.70;4.00;;;;;;;12.56;100.00;97058.06;5098126;28;20067;-94
2024/01/18 03:53:06;;;;;;;13.07;4.20;;;;;;;12.86;100.00;97097.94;5100203;28;20047;-95
2024/01/18 03:55:32;;;;;;;10.73;4.10;;;;;;;12.87;100.00;97086.34;5099820;28;20052;-95
2024/01/18 03:57:57;;;;;;;9.40;3.53;;;;;;;12.76;100.00;97070.16;5098355;28;20046;-94
2024/01/18 04:00:23;;;;;;;7.28;3.33;;;;;;;12.84;100.00;97078.53;5098269;28;20052;-95
2024/01/18 04:02:49;;;;;;;13.80;3.33;;;;;;;12.87;100.00;97081.00;5098690;28;20077;-95
2024/01/18 04:05:15;;;;;;;10.35;3.08;;;;;;;12.64;100.00;97047.75;5098956;28;20050;-95
2024/01/18 04:07:42;;;;;;;17.02;3.88;;;;;;;12.35;100.00;97005.13;5099893;28;20074;-95
2024/01/18 04:10:09;;;;;;;14.18;3.35;;;;;;;12.73;100.00;97068.53;5098570;28;20039;-93
2024/01/18 04:12:35;;;;;;;12.65;3.22;;;;;;;12.78;100.00;97068.25;5098330;28;20040;-93
2024/01/18 04:15:01;;;;;;;14.48;3.47;;;;;;;12.78;100.00;97085.09;5097969;28;20116;-93
2024/01/18 04:17:27;;;;;;;15.50;2.90;;;;;;;12.40;100.00;97012.84;5097746;28;20126;-94
2024/01/18 04:19:52;;;;;;;19.50;3.38;;;;;;;12.63;100.00;97059.41;5098614;28;20052;-93
2024/01/18 04:22:18;;;;;;;11.63;3.25;;;;;;;12.81;100.00;97087.56;5097675;28;20088;-94
2024/01/18 04:24:46;;;;;;;9.07;2.70;;;;;;;12.85;100.00;97113.09;5097134;28;20040;-94
2024/01/18 04:27:11;;;;;;;14.85;4.13;;;;;;;12.74;100.00;97081.75;5097886;28;20031;-93
2024/01/18 04:29:37;;;;;;;8.77;2.70;;;;;;;12.85;100.00;97091.75;5097576;28;20059;-93
2024/01/18 04:32:03;;;;;;;17.48;2.45;;;;;;;12.85;100.00;97094.41;5096386;28;20389;-95
2024/01/18 04:34:29;;;;;;;11.52;2.88;;;;;;;12.79;100.00;97078.78;5097431;28;20067;-93
2024/01/18 04:36:55;;;;;;;9.90;2.78;;;;;;;12.97;100.00;97102.59;5097153;28;20454;-94
2024/01/18 04:39:21;;;;;;;11.32;3.55;;;;;;;12.86;100.00;97090.81;5097129;28;20048;-94
2024/01/18 04:41:48;;;;;;;8.18;3.00;;;;;;;13.00;100.00;97097.09;5096901;28;20500;-94
2024/01/18 04:44:13;;;;;;;9.38;3.05;;;;;;;12.76;100.00;97078.16;5097726;28;20040;-94
2024/01/18 04:46:39;;;;;;;13.98;2.35;;;;;;;12.76;100.00;97078.16;5096750;28;20036;-93
2024/01/18 04:49:05;;;;;;;11.45;3.25;;;;;;;12.61;100.00;97040.81;5097219;28;20047;-95
2024/01/18 04:51:31;;;;;;;16.40;3.10;;;;;;;12.75;100.00;97055.94;5098250;28;20411;-95
2024/01/18 04:53:57;;;;;;;12.88;3.30;;;;;;;13.10;100.00;97116.91;5097333;28;20050;-94
2024/01/18 04:56:23;;;;;;;16.08;3.50;;;;;;;12.91;100.00;97088.69;5098298;28;20031;-93
2024/01/18 04:58:51;;;;;;;19.38;4.00;;;;;;;12.54;100.00;97044.84;5098755;28;20075;-95
2024/01/18 05:01:19;;;;;;;15.13;3.47;;;;;;;12.99;100.00;97116.69;5097720;28;20043;-94
2024/01/18 05:03:45;;;;;;;20.55;3.78;;;;;;;12.64;100.00;97055.75;5098733;28;20507;-93
2024/01/18 05:06:11;;;;;;;13.25;3.10;;;;;;;13.03;100.00;97128.91;5099277;28;20416;-94
2024/01/18 05:08:37;;;;;;;13.85;4.30;;;;;;;12.67;100.00;97076.91;5097990;28;20032;-96
2024/01/18 05:11:03;;;;;;;8.93;3.28;;;;;;;12.50;100.00;97041.50;5099362;28;20050;-95
2024/01/18 05:13:29;;;;;;;14.13;3.50;;;;;;;12.73;100.00;97074.72;5099249;28;20396;-96
2024/01/18 05:15:59;;;;;;;12.95;3.55;;;;;;;12.51;100.00;97037.88;5100267;28;20036;-94
2024/01/18 05:18:25;;;;;;;12.38;3.60;;;;;;;12.61;100.00;97042.63;5098277;28;20489;-94
2024/01/18 05:20:51;;;;;;;19.50;4.82;;;;;;;12.66;100.00;97060.03;5098253;28;20044;-94
2024/01/18 05:23:16;;;;;;;15.27;3.60;;;;;;;12.62;100.00;97055.88;5098128;28;20385;-94
2024/01/18 05:25:43;;;;;;;13.25;3.35;;;;;;;12.68;100.00;97062.63;5097449;28;20057;-94
2024/01/18 05:28:09;;;;;;;20.60;5.07;;;;;;;12.71;100.00;97065.97;5098746;28;20544;-94
2024/01/18 05:30:35;;;;;;;15.40;2.75;;;;;;;12.59;100.00;97037.38;5097105;28;20412;-95
2024/01/18 05:33:04;;;;;;;11.10;3.50;;;;;;;12.85;100.00;97070.41;5097762;28;20044;-95
2024/01/18 05:35:30;;;;;;;15.75;3.78;;;;;;;12.65;100.00;97046.81;5096017;28;20043;-95
2024/01/18 05:37:56;;;;;;;12.45;3.35;;;;;;;12.86;100.00;97076.59;5097875;28;20044;-95
2024/01/18 05:40:22;;;;;;;14.07;3.28;;;;;;;12.59;100.00;97040.06;5097700;28;20496;-93
2024/01/18 05:42:49;;;;;;;17.92;4.10;;;;;;;12.76;100.00;97084.34;5097539;28;20557;-94
2024/01/18 05:45:15;;;;;;;14.30;3.95;;;;;;;12.74;100.00;97067.56;5098155;28;20036;-94
2024/01/18 05:47:40;;;;;;;13.98;3.25;;;;;;;12.81;100.00;97081.38;5097369;28;20522;-94
2024/01/18 05:50:09;;;;;;;13.55;4.68;;;;;;;12.70;100.00;97063.38;5097359;28;20055;-95
2024/01/18 05:52:35;;;;;;;18.33;4.53;;;;;;;12.67;100.00;97053.78;5097095;28;20511;-95
2024/01/18 05:55:01;;;;;;;14.38;4.65;;;;;;;13.06;100.00;97131.38;5097729;28;20051;-96
2024/01/18 05:57:30;;;;;;;14.77;4.97;;;;;;;12.89;100.00;97117.28;5097034;28;20046;-96
2024/01/18 05:59:58;;;;;;;13.07;3.03;;;;;;;12.98;100.00;97113.19;5098245;28;20496;-95
2024/01/18 06:02:24;;;;;;;18.15;4.20;;;;;;;13.03;100.00;97131.56;5099655;28;20043;-93
2024/01/18 06:04:50;;;;;;;23.15;4.72;;;;;;;12.91;100.00;97120.72;5098540;28;20117;-94
2024/01/18 06:07:17;;;;;;;12.77;5.03;;;;;;;12.76;100.00;97091.50;5099682;28;20040;-94
2024/01/18 06:09:43;;;;;;;13.10;3.33;;;;;;;12.71;100.00;97095.28;5098447;28;20504;-95
2024/01/18 06:12:09;;;;;;;13.60;3.42;;;;;;;12.97;100.00;97124.81;5099489;28;20051;-94
2024/01/18 06:14:34;;;;;;;15.98;3.55;;;;;;;13.11;100.00;97139.94;5098748;28;20142;-95
2024/01/18 06:17:00;;;;;;;11.18;3.28;;;;;;;12.86;100.00;97106.81;5099291;28;20260;-94
2024/01/18 06:19:26;;;;;;;15.20;5.55;;;;;;;13.02;100.00;97122.72;5100325;28;20044;-94
2024/01/18 06:21:52;;;;;;;12.68;4.50;;;;;;;13.16;100.00;97153.84;5098566;28;20081;-93
2024/01/18 06:24:19;;;;;;;14.50;3.75;;;;;;;13.18;100.00;97167.09;5096835;28;20058;-93
2024/01/18 06:26:45;;;;;;;15.52;4.05;;;;;;;13.13;100.00;97164.72;5096618;28;20054;-96
2024/01/18 06:29:12;;;;;;;14.27;3.45;;;;;;;13.00;100.00;97139.78;5096030;28;20454;-95
2024/01/18 06:31:37;;;;;;;11.43;3.22;;;;;;;12.76;100.00;97100.34;5097837;28;20065;-95
2024/01/18 06:34:04;;;;;;;20.15;4.10;;;;;;;12.97;100.00;97132.81;5097868;28;20040;-94
2024/01/18 06:36:31;;;;;;;12.63;4.57;;;;;;;12.80;100.00;97109.88;5098890;28;20054;-94
2024/01/18 06:38:57;;;;;;;14.95;2.92;;;;;;;12.74;100.00;97115.56;5101767;28;20464;-96
2024/01/18 06:41:25;;;;;;;11.85;4.22;;;;;;;12.71;100.00;97100.63;5100754;28;20056;-95
2024/01/18 06:43:51;;;;;;;9.98;3.35;;;;;;;12.95;100.00;97161.41;5104436;28;20130;-95
2024/01/18 06:46:18;;;;;;;16.48;4.10;;;;;;;12.85;100.00;97141.59;5102288;28;20039;-94
2024/01/18 06:48:50;;;;;;;12.15;2.88;;;;;;;12.76;100.00;97110.16;5103565;28;20058;-94
2024/01/18 06:51:17;;;;;;;12.82;3.08;;;;;;;13.08;100.00;97175.69;5103999;28;20047;-95
2024/01/18 06:53:43;;;;;;;12.18;3.75;;;;;;;12.91;100.00;97173.22;5102230;28;20039;-94
2024/01/18 06:56:10;;;;;;;21.50;4.53;;;;;;;13.05;100.00;97181.22;5101918;28;20035;-95
2024/01/18 06:58:38;;;;;;;13.95;4.82;;;;;;;12.80;100.00;97146.38;5100945;28;20032;-93
2024/01/18 07:01:04;;;;;;;17.80;5.45;;;;;;;12.77;100.00;97151.88;5101050;28;20071;-93
2024/01/18 07:03:30;;;;;;;18.00;4.72;;;;;;;12.68;100.00;97138.13;5102318;28;20047;-93
2024/01/18 07:05:57;;;;;;;18.95;4.88;;;;;;;12.89;100.00;97156.44;5101910;28;20541;-94
2024/01/18 07:08:23;;;;;;;14.05;3.35;;;;;;;13.11;100.00;97182.66;5102129;28;20043;-92
2024/01/18 07:10:48;;;;;;;14.13;3.60;;;;;;;13.15;100.00;97176.16;5101882;28;20039;-95
2024/01/18 07:13:14;;;;;;;13.98;4.15;;;;;;;12.87;100.00;97127.19;5102978;28;20047;-95
2024/01/18 07:15:42;;;;;;;11.52;3.78;;;;;;;12.84;100.00;97116.72;5101464;28;20040;-93
2024/01/18 07:18:07;;;;;;;14.90;3.17;;;;;;;12.78;100.00;97109.09;5102492;28;20043;-95
2024/01/18 07:20:33;;;;;;;19.00;4.40;;;;;;;13.17;100.00;97176.06;5102471;28;20061;-93
2024/01/18 07:23:00;;;;;;;9.30;3.25;;;;;;;12.95;100.00;97142.75;5102952;28;20050;-93
2024/01/18 07:25:25;;;;;;;11.52;3.67;;;;;;;13.18;100.00;97193.78;5102860;28;20487;-94
2024/01/18 07:27:51;;;;;;;18.55;4.88;;;;;;;13.21;100.00;97212.31;5102118;28;20074;-94
2024/01/18 07:30:17;;;;;;;15.15;4.18;;;;;;;12.94;100.00;97160.53;5098942;28;20107;-95
2024/01/18 07:32:45;;;;;;;10.80;3.50;;;;;;;12.85;100.00;97118.44;5102447;28;20043;-93
2024/01/18 07:35:11;;;;;;;15.77;4.40;;;;;;;12.87;100.00;97113.84;5102841;28;20063;-95
2024/01/18 07:37:37;;;;;;;17.00;3.25;;;;;;;12.92;100.00;97113.56;5103165;28;20039;-94
2024/01/18 07:40:04;;;;;;;10.50;3.72;;;;;;;12.91;100.00;97106.53;5103006;28;20116;-95
2024/01/18 07:42:30;;;;;;;18.98;4.45;;;;;;;13.06;100.00;97131.38;5101774;28;20032;-95
2024/01/18 07:44:56;;;;;;;15.55;3.92;;;;;;;12.79;100.00;97089.47;5101518;28;20039;-94
2024/01/18 07:47:22;;;;;;;18.05;3.33;;;;;;;12.87;100.00;97094.34;5100401;28;20132;-95
2024/01/18 07:49:50;;;;;;;13.35;3.65;;;;;;;13.31;100.00;97163.56;5100496;28;20060;-93
2024/01/18 07:52:16;;;;;;;12.93;3.17;;;;;;;13.24;100.00;97142.69;5100565;28;20042;-94
2024/01/18 07:54:42;;;;;;;14.52;5.68;;;;;;;13.31;100.00;97166.25;5090489;28;20049;-94
2024/01/18 07:57:08;;;;;;;14.95;4.18;;;;;;;13.10;100.00;97114.22;5076105;28;20458;-93
2024/01/18 07:59:34;;;;;;;20.45;4.20;;;;;;;13.28;100.00;97152.22;5076212;28;20068;-94
2024/01/18 08:02:00;;;;;;;15.77;3.88;;;;;;;13.30;100.00;97153.88;5074528;28;20104;-95
2024/01/18 08:04:27;;;;;;;12.75;3.53;;;;;;;13.29;100.00;97152.16;5076003;28;20032;-94
2024/01/18 08:06:54;;;;;;;16.00;3.50;;;;;;;13.31;100.00;97138.69;5075622;28;20489;-94
2024/01/18 08:09:20;;;;;;;14.05;3.28;;;;;;;13.42;100.00;97164.72;5075747;28;20055;-95
2024/01/18 08:11:46;;;;;;;19.77;3.50;;;;;;;13.50;100.00;97154.41;5077376;28;20045;-93
2024/01/18 08:14:13;;;;;;;14.15;3.17;;;;;;;13.51;100.00;97156.09;5077560;28;20378;-94
2024/01/18 08:16:39;;;;;;;15.10;2.70;;;;;;;13.82;100.00;97189.69;5075089;28;20037;-94
2024/01/18 08:19:05;;;;;;;20.65;4.43;;;;;;;13.60;100.00;97159.97;5076674;28;20097;-94
2024/01/18 08:21:31;;;;;;;10.95;4.07;;;;;;;13.86;100.00;97156.47;5076282;28;20494;-94
2024/01/18 08:23:58;;;;;;;12.68;3.90;;;;;;;14.21;100.00;97195.19;5078213;28;20047;-93
2024/01/18 08:26:28;;;;;;;20.08;3.30;;;;;;;14.06;100.00;97171.19;5081178;28;20032;-96
2024/01/18 08:28:54;;;;;;;11.25;2.80;;;;;;;13.88;100.00;97151.00;5089343;28;20044;-94
2024/01/18 08:31:20;;;;;;;16.90;3.97;;;;;;;14.07;100.00;97188.06;5085215;28;20039;-93
2024/01/18 08:33:46;;;;;;;15.93;2.75;;;;;;;14.06;100.00;97203.25;5089512;28;20412;-92
2024/01/18 08:36:13;;;;;;;13.95;4.32;;;;;;;14.03;100.00;97214.16;5089425;28;20044;-94
2024/01/18 08:38:39;;;;;;;14.93;4.45;;;;;;;13.59;100.00;97150.28;5080665;28;20085;-94
2024/01/18 08:41:06;;;;;;;21.00;3.65;;;;;;;13.93;100.00;97202.34;5090186;28;20043;-93
2024/01/18 08:43:32;;;;;;;15.32;4.47;;;;;;;13.83;100.00;97185.22;5087835;28;20044;-94
2024/01/18 08:45:59;;;;;;;14.45;3.10;;;;;;;14.05;100.00;97188.19;5085202;28;20046;-93
2024/01/18 08:48:25;;;;;;;14.50;3.38;;;;;;;13.85;100.00;97141.41;5090445;28;20067;-92
2024/01/18 08:50:51;;;;;;;22.30;3.83;;;;;;;14.14;100.00;97186.72;5087229;28;20272;-94
2024/01/18 08:53:17;;;;;;;17.33;4.28;;;;;;;14.20;100.00;97202.34;5081650;28;20485;-93
2024/01/18 08:55:43;;;;;;;23.73;3.70;;;;;;;14.06;100.00;97176.53;5087199;28;20044;-94
2024/01/18 08:58:10;;;;;;;16.60;3.58;;;;;;;14.07;100.00;97172.88;5091464;28;20047;-94
2024/01/18 09:00:36;;;;;;;13.30;3.35;;;;;;;14.05;100.00;97165.94;5084688;28;20036;-93
2024/01/18 09:03:02;;;;;;;16.23;3.45;;;;;;;14.22;100.00;97210.25;5089423;28;20044;-95
2024/01/18 09:05:28;;;;;;;12.75;3.33;;;;;;;14.10;100.00;97196.75;5079753;28;20113;-94
2024/01/18 09:07:53;;;;;;;15.68;4.20;;;;;;;13.86;100.00;97145.78;5084489;28;20040;-94
2024/01/18 09:10:19;;;;;;;16.67;3.53;;;;;;;13.58;100.00;97130.72;5083767;28;20059;-92
2024/01/18 09:12:46;;;;;;;20.75;3.33;;;;;;;13.92;100.00;97166.78;5091804;28;20050;-93
2024/01/18 09:15:13;;;;;;;17.02;3.55;;;;;;;13.62;100.00;97142.94;5081147;28;20067;-93
2024/01/18 09:17:40;;;;;;;24.27;3.08;;;;;;;13.72;100.00;97160.03;5077612;28;20089;-94
2024/01/18 09:20:09;;;;;;;18.23;3.97;;;;;;;13.87;100.00;97176.03;5084111;28;20040;-94
2024/01/18 09:22:35;;;;;;;17.17;4.28;;;;;;;14.37;100.00;97204.72;5076559;28;20139;-94
2024/01/18 09:25:01;;;;;;;15.13;3.85;;;;;;;14.41;100.00;97189.34;5089685;28;20063;-94
2024/01/18 09:27:27;;;;;;;23.98;4.03;;;;;;;14.73;100.00;97197.88;5085792;28;20459;-95
2024/01/18 09:29:53;;;;;;;20.52;4.70;;;;;;;15.01;100.00;97195.97;5087441;28;20074;-92
2024/01/18 09:32:20;;;;;;;24.40;5.03;;;;;;;14.86;100.00;97157.75;5081682;28;20122;-94
2024/01/18 09:34:46;;;;;;;20.10;4.50;;;;;;;15.32;100.00;97212.53;5082381;28;20129;-93
2024/01/18 09:37:12;;;;;;;20.40;5.32;;;;;;;15.27;100.00;97164.66;5078867;28;20032;-94
2024/01/18 09:39:39;;;;;;;22.23;4.65;;;;;;;15.55;100.00;97162.66;5077774;28;20036;-94
2024/01/18 09:42:12;;;;;;;22.77;3.15;;;;;;;15.93;100.00;97210.78;5083190;28;20405;-92
2024/01/18 09:44:39;;;;;;;19.55;4.50;;;;;;;15.65;100.00;97200.34;5094675;28;20065;-95
2024/01/18 09:47:07;;;;;;;16.17;3.90;;;;;;;15.58;100.00;97216.00;5080690;28;20048;-93
2024/01/18 09:49:36;;;;;;;15.15;5.32;;;;;;;15.40;100.00;97229.78;5079509;28;20040;-95
2024/01/18 09:52:04;;;;;;;18.23;4.75;;;;;;;14.80;100.00;97168.88;5078179;28;20137;-93
2024/01/18 09:54:30;;;;;;;15.93;4.38;;;;;;;15.12;100.00;97193.38;5086557;28;20101;-92
2024/01/18 09:57:00;;;;;;;20.65;4.60;;;;;;;15.18;100.00;97221.56;5097412;28;20043;-95
2024/01/18 09:59:27;;;;;;;21.65;3.63;;;;;;;14.98;100.00;97204.19;5095900;28;20505;-93
2024/01/18 10:01:54;;;;;;;19.85;4.10;;;;;;;14.96;100.00;97179.34;5096135;28;20515;-94
2024/01/18 10:04:20;;;;;;;24.35;4.35;;;;;;;15.04;100.00;97192.22;5096185;28;20067;-93
2024/01/18 10:06:48;;;;;;;20.23;3.83;;;;;;;15.10;100.00;97197.13;5096945;28;20457;-92
2024/01/18 10:09:15;;;;;;;18.33;4.35;;;;;;;15.19;100.00;97224.09;5098021;28;20043;-93
2024/01/18 10:11:44;;;;;;;16.17;3.50;;;;;;;15.16;100.00;97218.97;5098215;28;20085;-94
2024/01/18 10:14:10;;;;;;;20.25;4.78;;;;;;;15.22;100.00;97212.31;5098888;28;20496;-92
2024/01/18 10:16:37;;;;;;;26.38;4.93;;;;;;;15.49;100.00;97214.00;5097546;28;20063;-95
2024/01/18 10:19:05;;;;;;;18.35;4.65;;;;;;;15.61;100.00;97171.13;5099789;28;20040;-90
2024/01/18 10:21:33;;;;;;;20.73;3.90;;;;;;;15.88;100.00;97171.91;5100557;28;20055;-94
2024/01/18 10:24:01;;;;;;;11.45;3.42;;;;;;;16.33;100.00;97194.41;5099340;28;20051;-93
2024/01/18 10:26:29;;;;;;;24.58;4.80;;;;;;;16.35;100.00;97186.22;5100534;28;20046;-93
2024/01/18 10:28:55;;;;;;;20.98;3.55;;;;;;;15.85;100.00;97156.03;5101194;28;20035;-93
2024/01/18 10:31:21;;;;;;;13.98;3.75;;;;;;;16.12;100.00;97188.84;5100099;28;20089;-95
2024/01/18 10:33:47;;;;;;;19.92;4.97;;;;;;;16.32;100.00;97210.63;5099808;28;20500;-92
2024/01/18 10:36:13;;;;;;;18.20;3.30;;;;;;;16.07;100.00;97144.56;5099928;28;20544;-93
2024/01/18 10:38:39;;;;;;;16.80;3.58;;;;;;;16.17;100.00;97172.41;5099144;28;20039;-92
2024/01/18 10:41:07;;;;;;;22.73;4.68;;;;;;;16.10;100.00;97155.91;5100549;28;20032;-94
2024/01/18 10:43:34;;;;;;;15.27;2.85;;;;;;;16.27;100.00;97145.75;5100917;28;20043;-92
2024/01/18 10:46:01;;;;;;;13.02;3.40;;;;;;;16.32;100.00;97160.50;5099437;28;20050;-93
2024/01/18 10:48:29;;;;;;;22.33;5.15;;;;;;;16.59;100.00;97194.25;5101847;28;20035;-93
2024/01/18 10:50:56;;;;;;;27.25;4.32;;;;;;;16.53;100.00;97200.94;5101999;28;20097;-94
2024/01/18 10:53:24;;;;;;;22.98;4.40;;;;;;;16.35;100.00;97178.19;5102434;28;20039;-93
2024/01/18 10:55:50;;;;;;;16.98;4.18;;;;;;;16.22;100.00;97168.41;5077678;28;20389;-93
2024/01/18 10:58:17;;;;;;;21.15;4.70;;;;;;;16.08;100.00;97144.44;5081964;28;20044;-93
2024/01/18 11:00:43;;;;;;;21.70;3.95;;;;;;;16.40;100.00;97181.41;5082919;28;20122;-93
2024/01/18 11:03:09;;;;;;;13.73;3.08;;;;;;;16.49;100.00;97175.31;5082965;28;20032;-96
2024/01/18 11:05:36;;;;;;;18.85;5.65;;;;;;;16.73;100.00;97177.09;5081224;28;20044;-94
2024/01/18 11:08:04;;;;;;;17.15;4.35;;;;;;;16.50;100.00;97174.31;5081374;28;20056;-95
2024/01/18 11:10:31;;;;;;;16.02;3.38;;;;;;;16.77;100.00;97186.63;5080145;28;20040;-96
2024/01/18 11:12:58;;;;;;;17.33;3.63;;;;;;;16.44;100.00;97137.25;5079741;28;20036;-94